Terminal Aerodrome Forecast
Issued by NWS

Home | Current Version | Previous Version | Text Only | Print | Product List | Glossary On
Versions: 1 2 3 4 5 6 7 8 9 10 11 12 13 14 15
000
FTUS45 KVEF 182300
TAFHND
TAF
KHND 182320Z 1900/1924 23013G22KT P6SM FEW120
     FM190300 22011KT P6SM SKC
     FM191400 VRB06KT P6SM SKC
     FM191800 16006KT P6SM SKC=

USA.gov is the U.S. government's official web portal to all federal, state and local government web resources and services.